Terminal Aerodrome Forecast
Issued by NWS Dodge City, KS

Home | Current Version | Previous Version | Text Only | Print | Product List | Glossary On
Versions: 1 2 3 4 5 6 7 8 9 10 11 12
000
FTUS43 KDDC 211120
TAFDDC
TAF
KDDC 211120Z 2112/2212 23005KT P6SM FEW250
     FM220300 08009KT P6SM VCSH OVC025
     FM221000 36018G24KT P6SM OVC050=

USA.gov is the U.S. government's official web portal to all federal, state and local government web resources and services.